Time;durP1;ratioP1;P1;durP2;ratioP2;P2;SDS_P1;SDS_P2;PMS_P1;PMS_P2;Temp;Humidity;BMP_temperature;BMP_pressure;BME280_temperature;BME280_humidity;BME280_pressure;Samples;Min_cycle;Max_cycle;Signal;HPM_P1;HPM_P2
2021/11/12 00:12:30;;;;;;;75.80;40.15;;;;;;;3.93;85.42;101332.22;1710452;83;21050;-80
2021/11/12 00:14:56;;;;;;;69.58;37.45;;;;;;;3.94;85.48;101328.64;1710320;83;21119;-80
2021/11/12 00:17:27;;;;;;;72.22;37.70;;;;;;;3.95;85.49;101335.59;1710339;83;21047;-80
2021/11/12 00:19:54;;;;;;;72.62;38.83;;;;;;;3.97;85.52;101326.64;1710320;83;21480;-80
2021/11/12 00:22:22;;;;;;;74.97;38.02;;;;;;;4.02;85.54;101332.89;1710626;82;21128;-79
2021/11/12 00:24:48;;;;;;;68.92;37.63;;;;;;;4.04;85.57;101324.42;1737938;81;21028;-81
2021/11/12 00:27:15;;;;;;;74.05;39.53;;;;;;;4.05;85.59;101324.77;1738664;82;21591;-81
2021/11/12 00:40:11;;;;;;;77.90;39.35;;;;;;;4.10;85.69;101334.55;1738484;82;21083;-81
2021/11/12 00:45:17;;;;;;;80.45;43.92;;;;;;;4.09;85.73;101342.08;1738489;82;21068;-81
2021/11/12 00:47:44;;;;;;;77.45;44.53;;;;;;;4.09;85.76;101333.31;1737207;82;21948;-81
2021/11/12 00:55:24;;;;;;;70.30;38.42;;;;;;;4.03;85.81;101326.20;1738522;82;21492;-81
2021/11/12 00:57:51;;;;;;;72.45;39.78;;;;;;;4.04;85.85;101327.05;1738810;81;21075;-81
2021/11/12 01:00:17;;;;;;;65.70;36.93;;;;;;;4.03;85.85;101333.27;1738757;82;21151;-81
2021/11/12 01:02:43;;;;;;;64.45;36.63;;;;;;;4.03;85.88;101328.00;1738408;82;21591;-81
2021/11/12 01:05:09;;;;;;;68.80;36.98;;;;;;;4.03;85.89;101341.19;1738706;82;21169;-81
2021/11/12 01:07:36;;;;;;;68.33;37.93;;;;;;;4.02;85.90;101335.53;1738564;81;21055;-81
2021/11/12 01:10:04;;;;;;;62.55;36.33;;;;;;;4.02;85.91;101329.79;1738765;81;21032;-81
2021/11/12 01:12:30;;;;;;;70.00;37.33;;;;;;;4.02;85.96;101328.94;1738759;82;21075;-81
2021/11/12 01:14:56;;;;;;;70.57;36.58;;;;;;;4.05;85.98;101329.22;1728638;83;21008;-81
2021/11/12 01:17:23;;;;;;;70.32;35.83;;;;;;;4.05;86.00;101331.36;1738693;81;21024;-81
2021/11/12 01:19:49;;;;;;;70.37;39.05;;;;;;;4.06;86.03;101322.50;1739135;82;21116;-80
2021/11/12 01:22:15;;;;;;;72.22;39.40;;;;;;;4.06;86.04;101321.19;1739396;82;21500;-81
2021/11/12 01:24:42;;;;;;;80.62;44.42;;;;;;;4.06;86.06;101325.14;1738894;82;21180;-80
2021/11/12 01:27:08;;;;;;;72.82;40.43;;;;;;;4.05;86.08;101322.63;1738879;82;21602;-80
2021/11/12 01:29:35;;;;;;;75.95;41.55;;;;;;;4.05;86.08;101326.08;1739409;82;21012;-80
2021/11/12 01:34:53;;;;;;;87.25;42.88;;;;;;;4.03;86.11;101311.69;1738879;82;21076;-81
2021/11/12 01:37:21;;;;;;;77.00;40.28;;;;;;;4.03;86.11;101320.93;1738814;81;21536;-81
2021/11/12 01:39:53;;;;;;;81.70;42.20;;;;;;;4.05;86.13;101317.34;1739132;82;21067;-81
2021/11/12 01:42:24;;;;;;;90.47;43.05;;;;;;;4.04;86.18;101309.90;1739089;82;21017;-81
2021/11/12 01:45:09;;;;;;;85.35;42.38;;;;;;;4.04;86.19;101313.86;1738662;82;21048;-81
2021/11/12 01:47:40;;;;;;;86.75;43.60;;;;;;;4.04;86.21;101308.58;1728832;82;21111;-81
2021/11/12 01:50:04;;;;;;;76.65;39.83;;;;;;;4.05;86.23;101309.44;1734085;81;21955;-81
2021/11/12 01:52:34;;;;;;;77.40;41.48;;;;;;;4.04;86.23;101304.63;1734702;82;21029;-80
2021/11/12 01:55:02;;;;;;;83.50;41.45;;;;;;;4.05;86.27;101305.47;1734765;81;21513;-81
2021/11/12 01:59:49;;;;;;;75.78;37.98;;;;;;;4.06;86.31;101313.73;1736152;82;20976;-80
2021/11/12 02:02:16;;;;;;;73.87;36.98;;;;;;;4.08;86.34;101317.13;1736414;82;21190;-80
2021/11/12 02:04:42;;;;;;;66.90;37.78;;;;;;;4.09;86.34;101314.37;1736015;82;21083;-80
2021/11/12 02:07:11;;;;;;;81.65;39.88;;;;;;;4.11;86.35;101314.28;1736248;81;21587;-80
2021/11/12 02:09:36;;;;;;;73.40;38.28;;;;;;;4.10;86.37;101313.43;1736324;82;21016;-80
2021/11/12 02:12:16;;;;;;;70.50;37.75;;;;;;;4.11;86.41;101305.89;1736092;82;21070;-80
2021/11/12 02:14:34;;;;;;;69.80;35.65;;;;;;;4.13;86.41;101307.08;1734542;82;21575;-81
2021/11/12 02:17:08;;;;;;;72.08;37.25;;;;;;;4.13;86.45;101317.17;1736134;81;21457;-81
2021/11/12 02:19:34;;;;;;;73.97;36.45;;;;;;;4.12;86.47;101306.23;1735843;81;21064;-80
2021/11/12 02:22:11;;;;;;;69.72;37.55;;;;;;;4.11;86.46;101305.89;1736299;81;21012;-80
2021/11/12 02:24:41;;;;;;;71.87;36.83;;;;;;;4.10;86.48;101300.23;1735908;82;21595;-81
2021/11/12 02:27:07;;;;;;;71.67;37.65;;;;;;;4.08;86.49;101309.22;1736145;82;21886;-81
2021/11/12 02:29:34;;;;;;;79.50;37.40;;;;;;;4.07;86.51;101307.05;1736007;82;21005;-81
2021/11/12 02:32:00;;;;;;;67.78;37.03;;;;;;;4.05;86.51;101302.33;1736171;82;21044;-80
2021/11/12 02:34:26;;;;;;;72.65;36.48;;;;;;;4.04;86.53;101303.30;1736396;82;21060;-81
2021/11/12 02:36:54;;;;;;;65.78;35.75;;;;;;;4.03;86.52;101300.28;1736550;81;20997;-81
2021/11/12 02:39:20;;;;;;;73.90;36.93;;;;;;;4.02;86.54;101299.44;1736162;81;21414;-80
2021/11/12 02:41:46;;;;;;;71.42;38.33;;;;;;;4.03;86.57;101304.25;1736121;82;21051;-81
2021/11/12 02:44:12;;;;;;;73.85;38.90;;;;;;;4.03;86.58;101302.92;1736436;82;21019;-80
2021/11/12 02:46:40;;;;;;;74.55;39.80;;;;;;;4.02;86.58;101306.50;1735848;81;21528;-81
2021/11/12 02:49:06;;;;;;;68.78;34.83;;;;;;;4.02;86.60;101302.55;1733417;81;21075;-81
2021/11/12 02:51:34;;;;;;;84.45;45.88;;;;;;;4.01;86.61;101303.52;1733450;81;21172;-80
2021/11/12 02:54:08;;;;;;;79.45;42.85;;;;;;;4.01;86.60;101306.16;1733664;82;21536;-80
2021/11/12 02:56:33;;;;;;;69.92;37.85;;;;;;;4.02;86.62;101303.86;1733374;81;20977;-81
2021/11/12 02:59:06;;;;;;;65.57;36.05;;;;;;;4.03;86.64;101308.20;1733704;82;21607;-80
2021/11/12 03:01:35;;;;;;;65.03;37.40;;;;;;;4.02;86.64;101299.91;1733383;81;21016;-81
2021/11/12 03:04:03;;;;;;;72.33;39.03;;;;;;;4.03;86.60;101310.84;1733519;82;21776;-80
2021/11/12 03:06:29;;;;;;;70.15;37.48;;;;;;;4.03;86.60;101310.84;1733593;82;21682;-80
2021/11/12 03:09:01;;;;;;;71.35;37.90;;;;;;;4.05;86.68;101308.11;1732995;82;21067;-80
2021/11/12 03:11:26;;;;;;;66.33;37.53;;;;;;;4.05;86.69;101307.61;1733635;82;21107;-80
2021/11/12 03:13:52;;;;;;;64.53;35.45;;;;;;;4.04;86.70;101305.94;1733482;82;21021;-80
2021/11/12 03:16:19;;;;;;;70.83;36.75;;;;;;;4.02;86.69;101309.99;1733694;82;21575;-81
2021/11/12 03:18:47;;;;;;;65.40;34.67;;;;;;;4.00;86.66;101305.78;1733608;82;21016;-80
2021/11/12 03:21:17;;;;;;;67.82;35.10;;;;;;;4.02;86.70;101311.78;1733655;82;21021;-80
2021/11/12 03:26:27;;;;;;;95.30;43.33;;;;;;;4.05;86.72;101307.61;1733356;82;21626;-81
2021/11/12 04:03:52;;;;;;;77.55;39.35;;;;;;;4.11;86.79;101309.00;1739584;81;21047;-80
2021/11/12 04:19:47;;;;;;;76.25;38.17;;;;;;;4.11;86.80;101305.89;1682249;85;21043;-79
2021/11/12 04:41:22;;;;;;;78.00;38.23;;;;;;;4.17;86.85;101306.77;1696866;84;21592;-80
2021/11/12 05:46:25;;;;;;;67.30;36.63;;;;;;;4.45;86.85;101313.12;1714591;83;21056;-80
2021/11/12 05:51:39;;;;;;;69.97;36.13;;;;;;;4.50;86.86;101322.88;1714188;82;21555;-80
2021/11/12 05:56:52;;;;;;;71.33;38.02;;;;;;;4.51;86.87;101324.57;1714292;83;21151;-82
2021/11/12 05:59:18;;;;;;;79.40;37.45;;;;;;;4.52;86.85;101326.73;1715348;82;21048;-81
2021/11/12 06:01:47;;;;;;;69.40;37.23;;;;;;;4.56;86.85;101327.37;1724117;82;21546;-81
2021/11/12 06:04:13;;;;;;;90.50;44.95;;;;;;;4.59;86.85;101327.15;1712783;83;21127;-82
2021/11/12 06:06:40;;;;;;;83.85;42.40;;;;;;;4.57;86.85;101325.95;1716890;82;21045;-80
2021/11/12 06:09:06;;;;;;;127.38;56.00;;;;;;;4.58;86.85;101320.16;1732151;82;21133;-81
2021/11/12 06:11:33;;;;;;;84.80;39.53;;;;;;;4.58;86.83;101320.16;1725293;82;21613;-81
2021/11/12 06:13:59;;;;;;;73.83;37.45;;;;;;;4.57;86.82;101318.03;1714417;82;21589;-79
2021/11/12 06:16:26;;;;;;;64.32;35.33;;;;;;;4.57;86.83;101320.67;1709533;83;21111;-79
2021/11/12 06:18:53;;;;;;;69.92;36.35;;;;;;;4.58;86.85;101326.30;1706760;84;21077;-79
2021/11/12 06:21:19;;;;;;;72.45;38.08;;;;;;;4.57;86.86;101329.06;1708733;84;21794;-79
2021/11/12 06:23:45;;;;;;;71.17;38.10;;;;;;;4.59;86.89;101332.43;1707616;84;21085;-80
2021/11/12 06:26:11;;;;;;;78.00;41.35;;;;;;;4.59;86.89;101331.95;1706978;84;21550;-79
2021/11/12 06:28:37;;;;;;;67.10;37.25;;;;;;;4.63;86.87;101336.55;1708590;84;21058;-79
2021/11/12 06:31:03;;;;;;;68.70;35.92;;;;;;;4.65;86.86;101341.23;1707749;84;21029;-79
2021/11/12 06:33:30;;;;;;;64.92;33.45;;;;;;;4.70;86.88;101339.13;1708622;83;21127;-80
2021/11/12 06:35:57;;;;;;;71.20;35.90;;;;;;;4.72;86.87;101339.84;1710422;83;21025;-80
2021/11/12 06:38:25;;;;;;;71.53;36.10;;;;;;;4.73;86.86;101346.83;1709017;84;21533;-79
2021/11/12 06:40:51;;;;;;;70.03;36.08;;;;;;;4.72;86.88;101346.45;1708859;84;21006;-80
2021/11/12 06:43:25;;;;;;;72.20;36.98;;;;;;;4.70;86.86;101341.77;1708899;84;21560;-80
2021/11/12 06:51:19;;;;;;;78.70;39.67;;;;;;;4.78;86.83;101345.56;1708773;84;21080;-80
2021/11/12 06:53:45;;;;;;;75.75;38.58;;;;;;;4.81;86.83;101343.16;1708855;84;21084;-80
2021/11/12 06:56:11;;;;;;;72.17;36.88;;;;;;;4.84;86.86;101344.27;1708758;84;21072;-80
2021/11/12 06:58:40;;;;;;;70.57;37.75;;;;;;;4.83;86.85;101341.25;1708838;84;21136;-80
2021/11/12 07:01:05;;;;;;;73.02;37.73;;;;;;;4.84;86.82;101340.30;1708743;83;21089;-79
2021/11/12 07:03:32;;;;;;;74.12;38.95;;;;;;;4.83;86.82;101343.41;1708937;84;21010;-79
2021/11/12 07:05:58;;;;;;;72.87;37.98;;;;;;;4.85;86.80;101349.45;1708918;84;21505;-80
2021/11/12 07:08:24;;;;;;;75.25;39.75;;;;;;;4.88;86.84;101346.58;1708985;84;21061;-80
2021/11/12 07:10:52;;;;;;;77.17;38.65;;;;;;;4.89;86.85;101344.79;1708898;84;21244;-80
2021/11/12 07:13:25;;;;;;;79.67;40.00;;;;;;;4.91;86.85;101348.16;1708851;84;21077;-80
2021/11/12 07:15:50;;;;;;;82.15;41.85;;;;;;;4.97;86.84;101349.02;1708629;83;21022;-79
2021/11/12 07:18:19;;;;;;;104.12;48.50;;;;;;;5.00;86.83;101347.48;1708450;84;21045;-79
2021/11/12 07:20:47;;;;;;;116.57;53.28;;;;;;;5.04;86.81;101334.41;1709071;84;21160;-80
2021/11/12 07:23:14;;;;;;;105.15;47.78;;;;;;;5.10;86.84;101337.95;1708927;82;21565;-79
2021/11/12 07:25:41;;;;;;;89.17;43.17;;;;;;;5.10;86.82;101333.98;1728855;82;21037;-79
2021/11/12 07:28:10;;;;;;;88.50;41.53;;;;;;;5.13;86.82;101340.37;1731934;82;21014;-80
2021/11/12 07:30:41;;;;;;;89.07;42.17;;;;;;;5.17;86.82;101341.83;1732304;82;21600;-79
2021/11/12 07:33:05;;;;;;;80.40;40.03;;;;;;;5.25;86.82;101351.83;1730954;82;21108;-79
2021/11/12 07:35:36;;;;;;;75.67;37.60;;;;;;;5.27;86.82;101345.48;1732387;82;21045;-79
2021/11/12 07:38:08;;;;;;;70.87;36.13;;;;;;;5.27;86.84;101345.96;1731757;82;21080;-79
2021/11/12 07:40:49;;;;;;;80.25;41.18;;;;;;;5.27;86.79;101337.55;1730958;82;20997;-79
2021/11/12 07:45:39;;;;;;;75.42;39.48;;;;;;;5.35;86.82;101345.75;1732323;82;21668;-80
2021/11/12 07:48:04;;;;;;;93.78;44.18;;;;;;;5.39;86.80;101347.21;1731610;82;21073;-79
2021/11/12 07:50:30;;;;;;;112.52;54.70;;;;;;;5.38;86.79;101346.84;1732439;82;21077;-79
2021/11/12 07:52:59;;;;;;;88.52;43.58;;;;;;;5.40;86.80;101338.80;1732604;82;20990;-79
2021/11/12 07:55:25;;;;;;;80.05;41.02;;;;;;;5.44;86.80;101337.15;1732502;82;21033;-79
2021/11/12 07:57:51;;;;;;;85.30;41.98;;;;;;;5.48;86.75;101345.70;1732147;82;21045;-79
2021/11/12 08:00:17;;;;;;;97.35;44.67;;;;;;;5.48;86.74;101342.58;1732444;82;21827;-78
2021/11/12 08:02:43;;;;;;;80.97;40.33;;;;;;;5.51;86.76;101338.37;1732461;82;21003;-79
2021/11/12 08:05:23;;;;;;;76.07;38.50;;;;;;;5.52;86.71;101340.05;1732316;82;21030;-79
2021/11/12 08:07:45;;;;;;;69.92;37.95;;;;;;;5.54;86.72;101342.11;1730835;82;21050;-78
2021/11/12 08:10:15;;;;;;;78.92;37.95;;;;;;;5.56;86.70;101335.88;1732655;82;21022;-79
2021/11/12 08:12:43;;;;;;;76.95;37.23;;;;;;;5.60;86.67;101335.98;1732082;82;21167;-79
2021/11/12 08:15:28;;;;;;;73.65;38.25;;;;;;;5.59;86.66;101332.99;1731866;82;21490;-79
2021/11/12 08:18:04;;;;;;;75.28;41.00;;;;;;;5.60;86.66;101328.05;1708095;82;21057;-79
2021/11/12 08:20:22;;;;;;;72.08;37.42;;;;;;;5.63;86.66;101328.66;1703580;83;21014;-79
2021/11/12 08:25:19;;;;;;;71.22;38.02;;;;;;;5.70;86.65;101328.56;1706920;84;21246;-79
2021/11/12 08:36:09;;;;;;;71.35;38.58;;;;;;;5.79;86.59;101334.97;1706767;83;21015;-79
2021/11/12 08:38:00;;;;;;;69.75;37.35;;;;;;;5.82;86.61;101332.94;1687210;84;21104;-80
2021/11/12 08:40:31;;;;;;;74.37;36.83;;;;;;;5.88;86.62;101335.61;1704691;83;21061;-79
2021/11/12 08:42:51;;;;;;;72.42;37.10;;;;;;;5.92;86.60;101329.98;1696178;84;20993;-79
2021/11/12 08:45:28;;;;;;;77.75;40.05;;;;;;;5.95;86.58;101335.03;1670149;84;21050;-80
2021/11/12 08:47:56;;;;;;;70.80;37.35;;;;;;;6.01;86.57;101329.77;1668512;86;21121;-80
2021/11/12 08:50:22;;;;;;;71.37;36.55;;;;;;;6.08;86.56;101337.61;1690794;84;21943;-80
2021/11/12 08:52:51;;;;;;;78.33;41.33;;;;;;;6.13;86.54;101335.42;1694529;83;21821;-79
2021/11/12 08:55:24;;;;;;;78.12;40.67;;;;;;;6.13;86.51;101339.88;1687942;84;21600;-79
2021/11/12 08:57:45;;;;;;;68.97;35.48;;;;;;;6.18;86.53;101337.73;1692970;84;21022;-79
2021/11/12 09:00:12;;;;;;;64.70;34.67;;;;;;;6.18;86.55;101337.25;1698399;84;21023;-79
2021/11/12 09:02:38;;;;;;;76.22;39.55;;;;;;;6.15;86.56;101340.14;1695529;84;21186;-79
2021/11/12 09:05:04;;;;;;;66.67;35.80;;;;;;;6.20;86.54;101333.98;1696127;84;21030;-79
2021/11/12 09:07:31;;;;;;;62.88;34.03;;;;;;;6.19;86.49;101324.38;1696094;84;21105;-79
2021/11/12 09:09:57;;;;;;;72.62;37.93;;;;;;;6.16;86.50;101328.56;1696224;84;21080;-79
2021/11/12 09:12:25;;;;;;;67.95;34.48;;;;;;;6.10;86.47;101322.42;1697655;83;21537;-79
2021/11/12 09:14:52;;;;;;;74.90;37.58;;;;;;;6.15;86.45;101318.95;1681726;85;21078;-79
2021/11/12 09:17:21;;;;;;;74.40;36.05;;;;;;;6.22;86.37;101316.20;1682042;82;21037;-79
2021/11/12 09:19:52;;;;;;;75.83;38.28;;;;;;;6.33;86.35;101317.50;1681974;85;21081;-79
2021/11/12 09:22:22;;;;;;;77.58;40.45;;;;;;;6.41;86.36;101321.72;1682064;85;21685;-79
2021/11/12 09:24:48;;;;;;;78.57;38.67;;;;;;;6.48;86.32;101317.63;1681107;85;21671;-79
2021/11/12 09:27:15;;;;;;;73.50;36.83;;;;;;;6.53;86.29;101314.14;1692800;84;21124;-79
2021/11/12 09:29:42;;;;;;;73.10;37.05;;;;;;;6.50;86.30;101317.04;1699315;84;21042;-79
2021/11/12 09:32:08;;;;;;;72.67;35.60;;;;;;;6.50;86.30;101319.69;1699395;84;21086;-79
2021/11/12 09:34:36;;;;;;;75.80;35.92;;;;;;;6.51;86.24;101314.73;1699610;84;21061;-79
2021/11/12 09:37:04;;;;;;;78.78;36.70;;;;;;;6.55;86.23;101323.28;1699412;84;21042;-79
2021/11/12 09:39:31;;;;;;;74.90;37.98;;;;;;;6.56;86.18;101313.52;1699496;84;21119;-79
2021/11/12 09:41:57;;;;;;;78.35;38.73;;;;;;;6.54;86.17;101311.83;1699347;84;20994;-79
2021/11/12 09:44:24;;;;;;;90.45;43.20;;;;;;;6.56;86.15;101310.88;1699337;84;21481;-79
2021/11/12 09:46:50;;;;;;;83.52;38.53;;;;;;;6.60;86.15;101313.17;1699287;84;21517;-79
2021/11/12 09:49:16;;;;;;;80.65;37.42;;;;;;;6.66;86.12;101314.47;1697055;84;21030;-79
2021/11/12 09:51:42;;;;;;;87.37;40.63;;;;;;;6.69;86.09;101298.32;1693974;84;21132;-79
2021/11/12 09:54:08;;;;;;;88.95;43.52;;;;;;;6.70;86.08;101300.02;1693238;84;21007;-79
2021/11/12 09:56:34;;;;;;;88.82;39.85;;;;;;;6.72;86.06;101298.11;1693666;84;21045;-79
2021/11/12 09:59:01;;;;;;;88.97;41.65;;;;;;;6.74;86.09;101297.01;1694027;84;21025;-79
2021/11/12 10:01:29;;;;;;;88.30;38.95;;;;;;;6.77;86.06;101294.58;1694009;84;21059;-79
2021/11/12 10:04:04;;;;;;;90.47;42.80;;;;;;;6.80;86.05;101289.03;1693913;84;21467;-80
2021/11/12 10:06:27;;;;;;;91.65;42.35;;;;;;;6.84;86.01;101282.52;1695301;84;37417;-80
2021/11/12 10:08:53;;;;;;;92.92;45.00;;;;;;;6.95;86.01;101281.17;1699277;84;21006;-80
2021/11/12 10:11:28;;;;;;;105.30;47.85;;;;;;;7.04;86.04;101281.73;1699378;84;21505;-79
2021/11/12 10:14:01;;;;;;;101.33;48.70;;;;;;;7.07;86.01;101274.03;1667264;86;21007;-80
2021/11/12 10:16:35;;;;;;;86.37;42.27;;;;;;;7.14;85.95;101272.08;1693982;82;21045;-80
2021/11/12 10:19:18;;;;;;;117.90;53.02;;;;;;;7.21;85.89;101271.92;1703689;83;21594;-80
2021/11/12 10:21:51;;;;;;;125.62;53.70;;;;;;;7.22;85.89;101266.95;1643846;85;21575;-80
2021/11/12 10:24:30;;;;;;;99.25;44.98;;;;;;;7.23;85.89;101259.37;1654354;85;21587;-81
2021/11/12 10:27:10;;;;;;;100.38;46.08;;;;;;;7.16;85.83;101260.00;1703576;84;21106;-80
2021/11/12 10:29:46;;;;;;;90.42;45.78;;;;;;;7.16;85.81;101260.84;1698307;83;21095;-81
2021/11/12 10:32:17;;;;;;;85.72;42.98;;;;;;;7.19;85.76;101249.12;1680140;85;21037;-81
2021/11/12 10:34:43;;;;;;;88.03;43.15;;;;;;;7.27;85.70;101247.53;1701957;83;21011;-81
2021/11/12 10:37:16;;;;;;;82.70;37.85;;;;;;;7.38;85.66;101243.50;1686293;84;21037;-80
2021/11/12 10:39:49;;;;;;;84.72;40.80;;;;;;;7.41;85.61;101233.95;1693683;84;21503;-81
2021/11/12 10:42:21;;;;;;;81.30;38.90;;;;;;;7.34;85.56;101232.78;1673980;85;21177;-81
2021/11/12 11:20:11;;;;;;;77.72;37.03;;;;;;;8.59;84.99;101174.05;1926121;74;22633;-78
2021/11/12 11:22:56;;;;;;;81.85;38.50;;;;;;;8.60;84.98;101177.08;1865261;76;21003;-80
2021/11/12 11:25:25;;;;;;;84.62;41.95;;;;;;;8.53;84.93;101170.99;1865478;77;21081;-80
2021/11/12 11:27:53;;;;;;;72.47;37.88;;;;;;;8.51;84.82;101170.27;1865416;76;20943;-80
2021/11/12 11:30:19;;;;;;;80.80;40.83;;;;;;;8.63;84.78;101171.48;1865435;76;21054;-80
2021/11/12 11:32:46;;;;;;;81.05;39.65;;;;;;;8.60;84.67;101167.77;1865281;76;20964;-80
2021/11/12 11:35:15;;;;;;;80.62;39.05;;;;;;;8.66;84.62;101161.89;1865502;76;21057;-80
2021/11/12 11:37:42;;;;;;;77.12;39.30;;;;;;;8.68;84.54;101169.26;1865047;76;21101;-80
2021/11/12 11:40:14;;;;;;;96.28;44.53;;;;;;;8.69;84.55;101173.61;1865498;77;20974;-80
2021/11/12 11:42:43;;;;;;;89.03;39.78;;;;;;;8.70;84.54;101172.13;1865461;77;21018;-80
2021/11/12 11:45:14;;;;;;;75.40;34.43;;;;;;;8.73;84.57;101160.36;1865658;76;21526;-79
2021/11/12 11:47:43;;;;;;;63.58;28.92;;;;;;;8.78;84.49;101154.14;1865706;77;20987;-80
2021/11/12 11:50:24;;;;;;;57.05;27.82;;;;;;;8.70;84.39;101153.98;1865092;76;21808;-80
2021/11/12 11:52:50;;;;;;;59.53;29.45;;;;;;;8.65;84.37;101153.10;1865497;77;21490;-80
2021/11/12 11:55:37;;;;;;;71.28;30.55;;;;;;;8.61;84.38;101156.17;1865129;77;20956;-80
2021/11/12 11:58:36;;;;;;;62.35;29.10;;;;;;;8.51;84.26;101162.30;1865430;77;21035;-80
2021/11/12 12:01:25;;;;;;;66.77;30.95;;;;;;;8.50;84.30;101157.13;1834567;77;20983;-80
2021/11/12 12:04:18;;;;;;;84.35;38.92;;;;;;;8.58;84.24;101156.45;1865803;76;21791;-80
2021/11/12 12:07:17;;;;;;;74.42;35.90;;;;;;;8.60;84.19;101150.00;1865595;76;21030;-80
2021/11/12 12:09:58;;;;;;;77.08;35.80;;;;;;;8.63;84.10;101142.23;1865651;77;20952;-80
2021/11/12 12:12:35;;;;;;;77.92;35.15;;;;;;;8.48;84.09;101149.28;1854380;76;20948;-81
2021/11/12 12:15:15;;;;;;;68.85;33.90;;;;;;;8.36;84.06;101143.76;1854702;75;21037;-81
2021/11/12 12:17:45;;;;;;;77.35;36.05;;;;;;;8.25;83.99;101135.87;1867982;75;21812;-80
2021/11/12 12:37:10;;;;;;;245.73;95.17;;;;;;;8.10;83.89;101107.16;1826461;77;21034;-80
2021/11/12 13:18:58;;;;;;;184.40;75.87;;;;;;;8.10;83.87;101110.66;1846068;75;21086;-80
2021/11/12 13:23:14;;;;;;;65.20;30.82;;;;;;;7.14;83.78;101077.13;1847926;77;21011;-81
2021/11/12 13:25:45;;;;;;;75.42;32.88;;;;;;;7.08;83.74;101077.63;1832450;77;21050;-80
2021/11/12 13:28:37;;;;;;;152.87;68.65;;;;;;;6.97;83.75;101080.34;1837420;77;21130;-80
2021/11/12 13:31:10;;;;;;;156.55;74.20;;;;;;;6.98;83.80;101074.08;1805051;78;21044;-80
2021/11/12 13:33:49;;;;;;;106.80;49.27;;;;;;;7.00;83.82;101070.84;1822383;78;21037;-81
2021/11/12 13:36:25;;;;;;;60.98;29.98;;;;;;;7.03;83.85;101075.88;1876919;76;22269;-81
2021/11/12 13:38:59;;;;;;;98.30;49.03;;;;;;;7.02;83.85;101063.09;1877819;76;21454;-80
2021/11/12 13:41:31;;;;;;;80.72;40.00;;;;;;;6.97;83.85;101061.78;1878838;76;21027;-81
2021/11/12 13:44:15;;;;;;;58.92;29.10;;;;;;;6.93;83.88;101063.86;1877297;75;21453;-81
2021/11/12 13:47:00;;;;;;;61.08;28.38;;;;;;;6.89;83.89;101065.11;1873739;75;20967;-80
2021/11/12 13:49:33;;;;;;;64.40;26.57;;;;;;;6.87;83.90;101064.87;1868646;75;21462;-80
2021/11/12 13:52:17;;;;;;;98.33;42.80;;;;;;;6.84;83.92;101055.38;1877039;75;20987;-80
2021/11/12 13:54:56;;;;;;;90.05;42.53;;;;;;;6.83;83.95;101056.81;1877981;75;21121;-80
2021/11/12 13:57:25;;;;;;;73.17;33.42;;;;;;;6.82;83.98;101055.16;1865320;75;20976;-80
2021/11/12 13:59:58;;;;;;;50.83;25.32;;;;;;;6.80;83.99;101059.73;1874154;76;20963;-81
2021/11/12 14:02:29;;;;;;;71.77;30.95;;;;;;;6.78;83.99;101065.66;1868996;75;21031;-81
2021/11/12 14:05:13;;;;;;;75.60;31.17;;;;;;;6.77;84.03;101065.30;1870471;76;21073;-80
2021/11/12 14:07:39;;;;;;;180.05;80.87;;;;;;;6.74;84.05;101077.00;1810774;78;21256;-81
2021/11/12 14:10:12;;;;;;;93.80;42.23;;;;;;;6.75;84.07;101068.57;1807471;78;21639;-80
2021/11/12 14:12:55;;;;;;;65.97;30.43;;;;;;;6.73;84.07;101066.52;1834810;78;21022;-80
2021/11/12 14:15:30;;;;;;;242.57;93.45;;;;;;;6.77;84.12;101067.46;1806022;78;21105;-81
2021/11/12 14:21:27;;;;;;;162.47;69.37;;;;;;;6.82;84.15;101063.11;1812213;78;21155;-80
2021/11/12 14:29:46;;;;;;;220.67;96.10;;;;;;;6.79;84.19;101050.93;1807089;77;21155;-79
2021/11/12 14:37:52;;;;;;;111.30;62.27;;;;;;;6.72;84.21;101047.63;1824306;78;21041;-79
2021/11/12 14:40:11;;;;;;;49.25;27.25;;;;;;;6.72;84.23;101044.98;1796161;78;21482;-79
2021/11/12 14:42:50;;;;;;;62.55;34.15;;;;;;;6.75;84.25;101047.36;1829781;78;20979;-79
2021/11/12 14:45:25;;;;;;;117.37;50.95;;;;;;;6.74;84.26;101045.67;1829037;78;21873;-79
2021/11/12 14:48:03;;;;;;;70.32;32.83;;;;;;;6.77;84.25;101054.21;1807023;78;21868;-79
2021/11/12 14:50:39;;;;;;;99.95;47.20;;;;;;;6.74;84.26;101044.34;1800848;78;21029;-79
2021/11/12 14:53:19;;;;;;;300.60;222.25;;;;;;;6.72;84.25;101040.49;1796175;79;20979;-79
2021/11/12 14:55:43;;;;;;;95.30;45.10;;;;;;;6.73;84.27;101043.98;1796042;79;21005;-79
2021/11/12 14:58:16;;;;;;;179.10;103.17;;;;;;;6.71;84.25;101041.48;1799995;77;21017;-80
2021/11/12 15:00:42;;;;;;;106.78;47.67;;;;;;;6.71;84.27;101041.96;1799823;78;21121;-80
2021/11/12 15:03:09;;;;;;;100.67;46.28;;;;;;;6.70;84.26;101046.42;1797731;79;21068;-79
2021/11/12 15:05:36;;;;;;;68.22;32.95;;;;;;;6.68;84.29;101034.27;1797505;79;21029;-79
2021/11/12 15:08:22;;;;;;;64.75;32.05;;;;;;;6.66;84.28;101032.22;1797446;79;21509;-79
2021/11/12 15:10:47;;;;;;;66.97;33.02;;;;;;;6.59;84.27;101025.75;1799785;78;21782;-80
2021/11/12 15:13:14;;;;;;;61.08;29.82;;;;;;;6.48;84.28;101016.91;1799376;78;22310;-80
2021/11/12 15:15:41;;;;;;;61.70;29.42;;;;;;;6.41;84.29;101025.00;1797032;79;21021;-79
2021/11/12 15:18:08;;;;;;;56.75;28.15;;;;;;;6.35;84.33;101022.88;1799151;77;20993;-79
2021/11/12 15:20:36;;;;;;;65.45;31.77;;;;;;;6.31;84.34;101029.39;1807453;76;21628;-80
2021/11/12 15:28:21;;;;;;;97.57;54.23;;;;;;;6.23;84.41;101029.17;1787805;79;20998;-79
2021/11/12 15:33:13;;;;;;;139.88;55.92;;;;;;;6.19;84.46;101025.12;1773912;78;20999;-80
2021/11/12 15:35:35;;;;;;;184.25;66.65;;;;;;;6.16;84.47;101027.19;1831937;78;21368;-81
2021/11/12 15:40:49;;;;;;;113.20;50.25;;;;;;;6.09;84.47;101024.17;1822456;78;20979;-80
2021/11/12 15:43:26;;;;;;;83.80;38.28;;;;;;;6.11;84.53;101026.71;1825531;77;21166;-81
2021/11/12 15:48:23;;;;;;;84.77;37.85;;;;;;;6.08;84.56;101022.52;1865196;76;21006;-80
2021/11/12 15:51:15;;;;;;;111.12;47.33;;;;;;;6.04;84.57;101015.78;1820911;78;21962;-80
2021/11/12 16:14:21;;;;;;;416.40;159.43;;;;;;;5.83;84.82;101016.18;1818572;78;21028;-80
2021/11/12 16:27:27;;;;;;;130.20;57.93;;;;;;;5.84;84.92;101008.61;1821900;78;21669;-80
2021/11/12 16:29:55;;;;;;;191.07;80.20;;;;;;;5.82;84.92;101002.10;1810366;78;21081;-81
2021/11/12 16:32:29;;;;;;;114.55;50.73;;;;;;;5.81;84.93;101008.83;1831060;78;21018;-81
2021/11/12 16:34:58;;;;;;;118.80;58.50;;;;;;;5.77;84.95;101008.23;1819222;78;21026;-81
2021/11/12 16:37:25;;;;;;;157.88;71.75;;;;;;;5.75;84.98;101009.33;1809661;78;20974;-81
2021/11/12 16:39:57;;;;;;;107.80;52.23;;;;;;;5.74;85.01;101001.88;1780926;78;21458;-81
2021/11/12 16:46:09;;;;;;;102.70;49.98;;;;;;;5.72;85.04;101005.62;1857518;77;21372;-80
2021/11/12 16:47:55;;;;;;;95.05;47.05;;;;;;;5.72;85.08;101010.91;1834803;77;21034;-80
2021/11/12 16:56:08;;;;;;;88.45;41.18;;;;;;;5.68;85.10;101022.70;1797419;79;21066;-81
2021/11/12 17:04:12;;;;;;;81.37;42.38;;;;;;;5.65;85.17;101023.80;1855503;75;21057;-80
2021/11/12 17:06:23;;;;;;;82.25;40.98;;;;;;;5.65;85.17;101022.47;1813125;77;21047;-80
2021/11/12 17:11:41;;;;;;;1770.53;713.03;;;;;;;5.63;85.24;101015.63;1848969;77;20980;-80
2021/11/12 17:14:23;;;;;;;324.23;181.37;;;;;;;5.63;85.26;101011.66;1838715;77;20992;-81
2021/11/12 17:46:02;;;;;;;89.52;45.35;;;;;;;5.50;85.50;101009.98;1824776;78;21068;-80
2021/11/12 17:48:27;;;;;;;85.75;43.45;;;;;;;5.52;85.50;101015.98;1824907;78;21142;-83
2021/11/12 17:51:12;;;;;;;132.70;69.00;;;;;;;5.53;85.48;101012.38;1822058;78;21005;-81
2021/11/12 18:01:55;;;;;;;267.87;121.02;;;;;;;5.58;85.50;100992.66;1825750;78;21075;-81
2021/11/12 18:04:10;;;;;;;184.22;88.20;;;;;;;5.58;85.49;100993.98;1800998;78;21112;-81
2021/11/12 18:06:34;;;;;;;176.65;74.70;;;;;;;5.57;85.49;100993.14;1824504;78;21528;-81